createdAt,value
2024-03-27T00:00:51.644Z,16.50
2024-03-27T00:03:40.925Z,18.00
2024-03-27T00:06:11.242Z,20.70
2024-03-27T00:08:39.714Z,24.20
2024-03-27T00:11:08.392Z,21.90
2024-03-27T00:13:36.946Z,21.70
2024-03-27T00:16:05.966Z,28.60
2024-03-27T00:18:34.685Z,27.70
2024-03-27T00:21:03.243Z,25.30
2024-03-27T00:23:31.828Z,24.70
2024-03-27T00:26:01.012Z,25.60
2024-03-27T00:28:29.925Z,23.20
2024-03-27T00:30:58.706Z,22.90
2024-03-27T00:33:27.198Z,24.70
2024-03-27T00:35:57.140Z,21.80
2024-03-27T00:38:26.882Z,27.50
2024-03-27T00:40:55.459Z,18.60
2024-03-27T00:43:24.143Z,21.40
2024-03-27T00:45:53.484Z,19.70
2024-03-27T00:48:23.026Z,17.90
2024-03-27T00:50:51.546Z,19.10
2024-03-27T00:53:20.056Z,21.70
2024-03-27T00:56:00.469Z,18.00
2024-03-27T00:58:30.290Z,16.90
2024-03-27T01:00:59.368Z,14.90
2024-03-27T01:03:28.453Z,14.20
2024-03-27T01:05:58.079Z,17.00
2024-03-27T01:08:27.149Z,14.20
2024-03-27T01:10:55.629Z,12.60
2024-03-27T01:13:24.303Z,11.30
2024-03-27T01:15:54.574Z,12.50
2024-03-27T01:18:23.481Z,15.50
2024-03-27T01:20:52.143Z,12.50
2024-03-27T01:23:20.654Z,12.20
2024-03-27T01:25:49.184Z,13.30
2024-03-27T01:28:17.830Z,17.40
2024-03-27T01:30:46.359Z,16.50
2024-03-27T01:33:14.937Z,15.80
2024-03-27T01:35:46.983Z,15.30
2024-03-27T01:38:15.524Z,15.50
2024-03-27T01:40:44.159Z,18.80
2024-03-27T01:43:12.693Z,13.90
2024-03-27T01:45:41.457Z,15.70
2024-03-27T01:48:10.119Z,15.40
2024-03-27T01:50:39.986Z,14.80
2024-03-27T01:53:12.262Z,15.70
2024-03-27T01:55:41.065Z,15.00
2024-03-27T01:58:12.138Z,12.60
2024-03-27T02:00:40.825Z,14.80
2024-03-27T02:03:10.189Z,15.10
2024-03-27T02:05:39.169Z,16.30
2024-03-27T02:08:07.940Z,21.00
2024-03-27T02:10:36.698Z,15.00
2024-03-27T02:13:05.261Z,22.10
2024-03-27T02:15:33.986Z,12.90
2024-03-27T02:18:02.602Z,14.60
2024-03-27T02:20:31.463Z,19.80
2024-03-27T02:23:09.904Z,17.40
2024-03-27T02:25:53.257Z,25.50
2024-03-27T02:28:21.882Z,15.10
2024-03-27T02:30:52.356Z,20.30
2024-03-27T02:33:20.964Z,25.40
2024-03-27T02:35:49.565Z,24.70
2024-03-27T02:38:18.228Z,29.60
2024-03-27T02:40:46.927Z,28.50
2024-03-27T02:43:15.496Z,28.60
2024-03-27T02:45:44.138Z,23.50
2024-03-27T02:48:13.472Z,17.20
2024-03-27T02:50:42.219Z,29.50
2024-03-27T02:53:10.788Z,17.60
2024-03-27T02:55:39.391Z,11.90
2024-03-27T02:58:09.624Z,12.20
2024-03-27T03:00:38.364Z,8.90
2024-03-27T03:03:06.927Z,13.50
2024-03-27T03:09:02.688Z,16.80
2024-03-27T03:11:31.360Z,20.60
2024-03-27T03:13:59.988Z,17.10
2024-03-27T03:16:28.697Z,21.70
2024-03-27T03:18:57.237Z,14.80
2024-03-27T03:21:25.824Z,8.80
2024-03-27T03:23:54.440Z,11.40
2024-03-27T03:26:22.958Z,17.80
2024-03-27T03:28:51.534Z,23.20
2024-03-27T03:31:20.098Z,19.40
2024-03-27T03:33:48.703Z,29.20
2024-03-27T03:36:17.256Z,30.30
2024-03-27T03:38:46.083Z,38.50
2024-03-27T03:41:15.248Z,30.80
2024-03-27T03:43:44.167Z,29.60
2024-03-27T03:46:14.214Z,29.30
2024-03-27T03:48:42.987Z,27.80
2024-03-27T03:51:11.615Z,29.60
2024-03-27T03:53:40.085Z,36.40
2024-03-27T03:56:08.654Z,45.50
2024-03-27T03:58:37.290Z,28.70
2024-03-27T04:01:07.958Z,41.30
2024-03-27T04:03:39.478Z,28.50
2024-03-27T04:06:08.160Z,31.60
2024-03-27T04:08:36.822Z,33.10
2024-03-27T04:11:05.693Z,25.30
2024-03-27T04:13:34.537Z,60.40
2024-03-27T04:16:04.111Z,35.30
2024-03-27T04:18:32.663Z,46.80
2024-03-27T04:21:01.612Z,29.20
2024-03-27T04:23:30.327Z,22.50
2024-03-27T04:26:06.113Z,18.50
2024-03-27T04:28:36.905Z,18.50
2024-03-27T04:31:07.931Z,35.30
2024-03-27T04:33:36.798Z,31.30
2024-03-27T04:36:11.483Z,41.70
2024-03-27T04:38:40.121Z,12.80
2024-03-27T04:41:10.406Z,13.70
2024-03-27T04:43:40.610Z,23.40
2024-03-27T04:46:09.251Z,26.30
2024-03-27T04:48:38.077Z,19.90
2024-03-27T04:51:06.884Z,27.30
2024-03-27T04:53:35.678Z,17.90
2024-03-27T04:56:05.031Z,38.10
2024-03-27T04:58:34.087Z,15.60
2024-03-27T05:01:02.847Z,26.70
2024-03-27T05:03:31.690Z,15.40
2024-03-27T05:06:00.547Z,20.00
2024-03-27T05:08:29.343Z,19.20
2024-03-27T05:10:57.945Z,15.70
2024-03-27T05:13:26.983Z,21.60
2024-03-27T05:15:55.559Z,21.30
2024-03-27T05:18:24.202Z,9.90
2024-03-27T05:20:57.882Z,20.70
2024-03-27T05:23:27.739Z,10.80
2024-03-27T05:25:57.111Z,13.50
2024-03-27T05:28:25.816Z,13.90
2024-03-27T05:30:54.852Z,15.60
2024-03-27T05:33:23.842Z,15.90
2024-03-27T05:35:53.131Z,13.00
2024-03-27T05:38:24.248Z,18.90
2024-03-27T05:40:53.014Z,19.00
2024-03-27T05:43:21.817Z,18.40
2024-03-27T05:45:50.604Z,12.60
2024-03-27T05:48:19.749Z,12.10
2024-03-27T05:50:48.663Z,11.50
2024-03-27T05:53:17.595Z,17.20
2024-03-27T05:56:01.081Z,13.00
2024-03-27T05:58:33.172Z,10.70
2024-03-27T06:01:01.884Z,16.60
2024-03-27T06:03:31.356Z,15.90
2024-03-27T06:06:00.161Z,11.90
2024-03-27T06:08:28.966Z,11.20
2024-03-27T06:10:59.711Z,8.00
2024-03-27T06:13:28.943Z,12.60
2024-03-27T06:15:58.541Z,13.80
2024-03-27T06:18:27.282Z,15.00
2024-03-27T06:20:56.227Z,9.40
2024-03-27T06:23:25.118Z,12.60
2024-03-27T06:26:03.194Z,14.50
2024-03-27T06:28:32.319Z,11.20
2024-03-27T06:34:08.345Z,16.50
2024-03-27T06:36:38.792Z,14.00
2024-03-27T06:39:59.980Z,20.50
2024-03-27T06:42:29.221Z,15.10
2024-03-27T06:45:01.179Z,25.00
2024-03-27T06:47:35.823Z,19.70
2024-03-27T06:50:11.626Z,17.60
2024-03-27T06:52:40.310Z,26.20
2024-03-27T06:55:09.985Z,24.20
2024-03-27T06:57:39.005Z,30.00
2024-03-27T07:00:11.252Z,29.60
2024-03-27T07:05:09.817Z,14.90
2024-03-27T07:07:38.708Z,15.30
2024-03-27T07:10:09.537Z,16.50
2024-03-27T07:12:38.874Z,10.20
2024-03-27T07:15:08.512Z,30.80
2024-03-27T07:17:37.564Z,11.20
2024-03-27T07:20:09.429Z,12.50
2024-03-27T07:22:38.394Z,17.20
2024-03-27T07:25:07.531Z,13.00
2024-03-27T07:27:38.302Z,14.50
2024-03-27T07:30:10.819Z,8.60
2024-03-27T07:32:41.315Z,12.60
2024-03-27T07:35:10.597Z,10.10
2024-03-27T07:37:39.381Z,12.50
2024-03-27T07:40:09.432Z,13.80
2024-03-27T07:42:47.491Z,16.50
2024-03-27T07:45:16.153Z,7.40
2024-03-27T07:47:45.556Z,14.70
2024-03-27T07:50:15.132Z,14.10
2024-03-27T07:57:21.887Z,8.60
2024-03-27T07:59:50.493Z,15.30
2024-03-27T08:02:21.055Z,23.40
2024-03-27T08:05:20.179Z,12.50
2024-03-27T08:07:48.903Z,10.60
2024-03-27T08:10:17.788Z,5.70
2024-03-27T08:12:47.748Z,6.40
2024-03-27T08:15:16.650Z,6.30
2024-03-27T08:17:45.506Z,15.70
2024-03-27T08:20:14.643Z,5.40
2024-03-27T08:22:43.362Z,19.20
2024-03-27T08:25:12.062Z,11.40
2024-03-27T08:28:38.992Z,16.60
2024-03-27T08:31:09.678Z,6.10
2024-03-27T08:33:39.603Z,14.70
2024-03-27T08:36:08.314Z,3.90
2024-03-27T08:38:39.241Z,10.00
2024-03-27T08:41:09.433Z,12.10
2024-03-27T08:43:38.096Z,7.50
2024-03-27T08:46:07.957Z,4.20
2024-03-27T08:48:36.612Z,4.20
2024-03-27T08:51:05.571Z,9.80
2024-03-27T08:53:38.783Z,7.70
2024-03-27T08:56:08.747Z,7.20
2024-03-27T08:58:40.884Z,7.50
2024-03-27T09:01:20.462Z,10.00
2024-03-27T09:03:49.116Z,6.10
2024-03-27T09:06:22.352Z,9.30
2024-03-27T09:08:51.159Z,6.30
2024-03-27T09:11:22.314Z,10.30
2024-03-27T09:13:51.205Z,5.80
2024-03-27T09:16:19.910Z,12.60
2024-03-27T09:18:49.003Z,7.00
2024-03-27T09:21:17.548Z,4.10
2024-03-27T09:23:46.220Z,9.30
2024-03-27T09:26:15.212Z,4.50
2024-03-27T09:28:44.094Z,9.70
2024-03-27T09:31:13.506Z,13.00
2024-03-27T09:33:42.311Z,20.30
2024-03-27T09:36:17.442Z,4.90
2024-03-27T09:38:46.064Z,14.50
2024-03-27T09:41:14.814Z,12.20
2024-03-27T09:43:45.700Z,6.70
2024-03-27T09:46:14.416Z,6.80
2024-03-27T09:48:44.532Z,15.90
2024-03-27T09:53:45.820Z,15.80
2024-03-27T09:56:14.716Z,5.10
2024-03-27T09:58:43.527Z,10.30
2024-03-27T10:01:12.537Z,11.40
2024-03-27T10:03:41.272Z,8.00
2024-03-27T10:06:10.106Z,7.30
2024-03-27T10:08:39.071Z,9.70
2024-03-27T10:11:08.761Z,8.90
2024-03-27T10:13:37.572Z,7.90
2024-03-27T10:16:15.947Z,5.50
2024-03-27T10:18:44.826Z,5.30
2024-03-27T10:21:14.238Z,8.50
2024-03-27T10:23:44.565Z,13.30
2024-03-27T10:26:13.900Z,10.80
2024-03-27T10:28:42.994Z,12.40
2024-03-27T10:31:14.434Z,11.80
2024-03-27T10:33:44.574Z,15.20
2024-03-27T10:36:17.636Z,13.50
2024-03-27T10:38:47.378Z,8.90
2024-03-27T10:41:16.683Z,8.90
2024-03-27T10:43:49.073Z,15.60
2024-03-27T10:46:18.507Z,10.20
2024-03-27T10:48:48.220Z,11.60
2024-03-27T10:51:25.585Z,12.50
2024-03-27T10:53:56.487Z,9.90
2024-03-27T10:56:25.971Z,8.90
2024-03-27T10:58:56.620Z,10.20
2024-03-27T11:01:26.074Z,15.90
2024-03-27T11:03:54.960Z,8.40
2024-03-27T11:06:23.815Z,10.00
2024-03-27T11:08:52.340Z,11.50
2024-03-27T11:11:21.544Z,11.10
2024-03-27T11:13:52.428Z,8.80
2024-03-27T11:16:24.142Z,10.90
2024-03-27T11:18:54.561Z,9.20
2024-03-27T11:21:28.926Z,18.00
2024-03-27T11:24:04.743Z,8.40
2024-03-27T11:26:33.989Z,8.70
2024-03-27T11:29:07.006Z,4.50
2024-03-27T11:31:41.714Z,12.70
2024-03-27T11:34:10.611Z,14.10
2024-03-27T11:36:42.779Z,11.10
2024-03-27T11:39:11.513Z,8.70
2024-03-27T11:41:40.412Z,11.50
2024-03-27T11:44:09.168Z,15.30
2024-03-27T11:46:40.698Z,8.20
2024-03-27T11:49:09.420Z,11.20
2024-03-27T11:52:13.467Z,5.70
2024-03-27T11:54:42.191Z,9.20
2024-03-27T11:57:12.529Z,14.90
2024-03-27T12:00:08.990Z,6.60
2024-03-27T12:02:38.875Z,10.30
2024-03-27T12:06:23.097Z,17.10
2024-03-27T12:08:55.799Z,11.00
2024-03-27T12:12:18.374Z,9.10
2024-03-27T12:14:47.129Z,11.00
2024-03-27T12:17:15.898Z,9.60
2024-03-27T12:19:57.446Z,11.10
2024-03-27T12:22:27.201Z,6.60
2024-03-27T12:24:56.243Z,3.50
2024-03-27T12:27:31.667Z,6.50
2024-03-27T12:30:01.722Z,15.10
2024-03-27T12:32:30.690Z,6.20
2024-03-27T12:35:03.414Z,13.50
2024-03-27T12:37:34.016Z,14.40
2024-03-27T12:40:03.471Z,8.80
2024-03-27T12:42:32.222Z,13.60
2024-03-27T12:45:00.879Z,6.10
2024-03-27T12:47:29.682Z,10.80
2024-03-27T12:49:58.605Z,5.40
2024-03-27T12:52:30.640Z,4.60
2024-03-27T12:55:07.103Z,4.50
2024-03-27T12:57:51.838Z,7.30
2024-03-27T13:00:27.650Z,5.90
2024-03-27T13:03:12.036Z,9.90
2024-03-27T13:05:45.344Z,4.90
2024-03-27T13:08:17.883Z,5.10
2024-03-27T13:10:47.838Z,4.80
2024-03-27T13:13:17.937Z,9.60
2024-03-27T13:15:47.884Z,5.70
2024-03-27T13:18:16.626Z,4.20
2024-03-27T13:20:45.312Z,10.80
2024-03-27T13:23:14.082Z,11.20
2024-03-27T13:25:44.792Z,6.50
2024-03-27T13:28:13.597Z,5.50
2024-03-27T13:30:42.788Z,10.90
2024-03-27T13:33:11.937Z,7.00
2024-03-27T13:35:40.649Z,8.80
2024-03-27T13:38:09.467Z,5.30
2024-03-27T13:40:38.150Z,9.30
2024-03-27T13:43:07.372Z,6.50
2024-03-27T13:45:36.275Z,7.20
2024-03-27T13:48:05.943Z,4.30
2024-03-27T13:50:36.432Z,6.60
2024-03-27T13:53:05.231Z,6.20
2024-03-27T13:55:34.226Z,5.20
2024-03-27T13:58:04.484Z,4.50
2024-03-27T14:00:33.307Z,4.40
2024-03-27T14:03:01.961Z,11.80
2024-03-27T14:05:30.797Z,4.90
2024-03-27T14:08:03.600Z,9.90
2024-03-27T14:10:34.295Z,8.00
2024-03-27T14:13:06.468Z,3.50
2024-03-27T14:15:35.722Z,13.20
2024-03-27T14:18:04.925Z,5.20
2024-03-27T14:20:33.662Z,12.30
2024-03-27T14:23:02.597Z,7.80
2024-03-27T14:25:31.298Z,4.00
2024-03-27T14:27:59.992Z,4.40
2024-03-27T14:30:28.853Z,5.10
2024-03-27T14:32:57.530Z,12.80
2024-03-27T14:35:26.686Z,11.50
2024-03-27T14:37:55.722Z,6.40
2024-03-27T14:40:25.677Z,2.70
2024-03-27T14:42:54.913Z,8.20
2024-03-27T14:45:24.238Z,3.60
2024-03-27T14:47:52.865Z,3.40
2024-03-27T14:50:21.458Z,6.70
2024-03-27T14:52:51.125Z,5.80
2024-03-27T14:55:20.085Z,5.00
2024-03-27T14:57:50.203Z,2.70
2024-03-27T15:00:19.285Z,7.20
2024-03-27T15:02:48.058Z,5.10
2024-03-27T15:05:17.122Z,6.40
2024-03-27T15:07:46.051Z,2.80
2024-03-27T15:10:14.872Z,8.10
2024-03-27T15:12:43.784Z,11.50
2024-03-27T15:15:13.112Z,3.30
2024-03-27T15:17:42.293Z,2.50
2024-03-27T15:20:12.566Z,3.00
2024-03-27T15:22:41.368Z,6.90
2024-03-27T15:25:10.690Z,5.60
2024-03-27T15:27:39.714Z,5.70
2024-03-27T15:30:09.396Z,6.70
2024-03-27T15:32:38.367Z,5.10
2024-03-27T15:35:08.161Z,3.30
2024-03-27T15:37:38.002Z,9.50
2024-03-27T15:43:37.934Z,5.60
2024-03-27T15:46:06.768Z,5.00
2024-03-27T15:48:36.107Z,4.10
2024-03-27T15:51:07.720Z,8.50
2024-03-27T15:53:40.330Z,7.40
2024-03-27T15:56:32.062Z,7.40
2024-03-27T16:02:16.650Z,4.80
2024-03-27T16:05:16.699Z,11.10
2024-03-27T16:08:08.003Z,3.10
2024-03-27T16:10:47.125Z,7.00
2024-03-27T16:13:17.576Z,4.40
2024-03-27T16:16:28.746Z,4.30
2024-03-27T16:18:58.833Z,7.30
2024-03-27T16:21:42.452Z,4.50
2024-03-27T16:24:19.227Z,5.70
2024-03-27T16:27:02.112Z,9.70
2024-03-27T16:29:31.689Z,4.10
2024-03-27T16:32:02.361Z,8.80
2024-03-27T16:34:36.422Z,3.60
2024-03-27T16:38:04.344Z,6.50
2024-03-27T16:40:34.471Z,4.00
2024-03-27T16:43:07.660Z,4.60
2024-03-27T16:45:42.874Z,6.40
2024-03-27T16:48:20.363Z,4.00
2024-03-27T16:51:07.423Z,6.70
2024-03-27T16:53:50.507Z,4.30
2024-03-27T16:56:28.897Z,4.20
2024-03-27T16:59:19.597Z,3.40
2024-03-27T17:05:30.897Z,2.30
2024-03-27T17:08:37.367Z,4.10
2024-03-27T17:11:32.523Z,3.30
2024-03-27T17:14:01.730Z,7.50
2024-03-27T17:16:36.814Z,6.40
2024-03-27T17:19:05.646Z,4.60
2024-03-27T17:21:34.907Z,2.20
2024-03-27T17:24:05.604Z,3.70
2024-03-27T17:26:36.063Z,4.40
2024-03-27T17:29:09.178Z,4.20
2024-03-27T17:31:38.521Z,3.90
2024-03-27T17:34:07.352Z,7.80
2024-03-27T17:36:36.346Z,3.60
2024-03-27T17:39:14.620Z,5.20
2024-03-27T17:41:47.500Z,3.90
2024-03-27T17:44:17.134Z,4.60
2024-03-27T17:47:08.864Z,7.30
2024-03-27T17:49:50.266Z,6.70
2024-03-27T17:56:06.499Z,2.10
2024-03-27T17:58:47.725Z,9.20
2024-03-27T18:03:07.988Z,3.40
2024-03-27T18:07:22.710Z,2.40
2024-03-27T18:15:22.691Z,2.80
2024-03-27T18:18:31.541Z,2.50
2024-03-27T18:21:04.245Z,4.00
2024-03-27T18:37:37.747Z,7.80
2024-03-27T18:41:14.154Z,2.20
2024-03-27T18:44:05.461Z,4.90
2024-03-27T18:47:13.127Z,5.50
2024-03-27T18:49:55.760Z,2.90
2024-03-27T18:52:25.840Z,2.90
2024-03-27T18:55:00.773Z,2.90
2024-03-27T18:57:41.636Z,15.40
2024-03-27T19:00:17.790Z,2.60
2024-03-27T19:02:53.903Z,11.90
2024-03-27T19:05:31.690Z,8.70
2024-03-27T19:08:02.625Z,2.60
2024-03-27T19:10:57.951Z,3.00
2024-03-27T19:13:52.396Z,3.50
2024-03-27T19:16:38.715Z,4.20
2024-03-27T19:19:17.375Z,3.60
2024-03-27T19:21:51.083Z,2.80
2024-03-27T19:24:19.938Z,8.00
2024-03-27T19:26:50.484Z,3.10
2024-03-27T19:29:30.780Z,3.10
2024-03-27T19:32:16.864Z,4.40
2024-03-27T19:34:49.679Z,2.70
2024-03-27T19:37:19.079Z,3.10
2024-03-27T19:39:51.162Z,4.30
2024-03-27T19:42:20.177Z,4.60
2024-03-27T19:44:49.864Z,2.80
2024-03-27T19:47:21.810Z,2.50
2024-03-27T19:50:04.194Z,2.90
2024-03-27T19:52:42.337Z,2.40
2024-03-27T19:55:14.818Z,2.50
2024-03-27T19:57:46.207Z,4.20
2024-03-27T20:00:16.767Z,2.80
2024-03-27T20:02:48.476Z,4.50
2024-03-27T20:05:20.928Z,3.30
2024-03-27T20:07:56.740Z,3.00
2024-03-27T20:10:28.796Z,7.60
2024-03-27T20:12:57.640Z,4.80
2024-03-27T20:15:27.451Z,5.00
2024-03-27T20:17:59.225Z,6.90
2024-03-27T20:20:32.541Z,3.00
2024-03-27T20:23:04.815Z,3.50
2024-03-27T20:26:13.029Z,2.50
2024-03-27T20:28:48.535Z,5.50
2024-03-27T20:31:19.383Z,4.10
2024-03-27T20:33:48.049Z,3.00
2024-03-27T20:36:18.305Z,2.60
2024-03-27T20:38:47.555Z,3.60
2024-03-27T20:41:19.918Z,4.80
2024-03-27T20:43:49.856Z,6.50
2024-03-27T20:46:19.841Z,6.90
2024-03-27T20:48:48.559Z,5.10
2024-03-27T20:51:20.406Z,2.60
2024-03-27T20:53:49.713Z,5.40
2024-03-27T20:56:18.361Z,4.00
2024-03-27T20:58:47.562Z,3.10
2024-03-27T21:01:16.532Z,4.60
2024-03-27T21:03:57.424Z,4.00
2024-03-27T21:06:29.728Z,5.10
2024-03-27T21:09:01.407Z,5.60
2024-03-27T21:11:30.060Z,5.40
2024-03-27T21:13:58.988Z,6.50
2024-03-27T21:16:27.657Z,6.10
2024-03-27T21:18:56.587Z,5.60
2024-03-27T21:21:26.198Z,5.90
2024-03-27T21:23:55.466Z,4.80
2024-03-27T21:26:24.940Z,3.70
2024-03-27T21:28:55.161Z,6.40
2024-03-27T21:31:24.178Z,4.20
2024-03-27T21:33:53.491Z,4.30
2024-03-27T21:36:26.141Z,5.00
2024-03-27T21:38:55.128Z,4.70
2024-03-27T21:41:24.124Z,2.20
2024-03-27T21:43:53.101Z,3.90
2024-03-27T21:46:22.069Z,2.20
2024-03-27T21:48:51.175Z,3.70
2024-03-27T21:53:49.918Z,4.70
2024-03-27T21:56:18.536Z,6.60
2024-03-27T21:58:48.538Z,4.70
2024-03-27T22:01:17.402Z,3.90
2024-03-27T22:03:47.529Z,4.70
2024-03-27T22:06:16.471Z,4.50
2024-03-27T22:08:45.090Z,3.60
2024-03-27T22:11:14.155Z,3.00
2024-03-27T22:13:46.648Z,4.00
2024-03-27T22:16:15.455Z,2.80
2024-03-27T22:18:44.585Z,5.60
2024-03-27T22:21:16.207Z,5.10
2024-03-27T22:23:45.076Z,5.50
2024-03-27T22:26:19.617Z,5.30
2024-03-27T22:28:51.955Z,3.10
2024-03-27T22:33:54.006Z,3.10
2024-03-27T22:36:22.635Z,2.70
2024-03-27T22:38:51.464Z,5.40
2024-03-27T22:41:21.512Z,6.40
2024-03-27T22:43:50.151Z,3.20
2024-03-27T22:46:18.729Z,5.40
2024-03-27T22:48:56.959Z,6.00
2024-03-27T22:51:29.727Z,3.20
2024-03-27T22:53:58.822Z,7.30
2024-03-27T22:56:28.645Z,6.40
2024-03-27T22:58:57.607Z,2.90
2024-03-27T23:01:28.562Z,4.50
2024-03-27T23:03:57.262Z,4.20
2024-03-27T23:06:25.819Z,5.60
2024-03-27T23:08:54.554Z,5.60
2024-03-27T23:11:23.256Z,8.30
2024-03-27T23:13:51.761Z,5.40
2024-03-27T23:16:20.714Z,5.90
2024-03-27T23:18:49.280Z,5.30
2024-03-27T23:21:18.082Z,5.40
2024-03-27T23:23:46.671Z,3.40
2024-03-27T23:26:15.210Z,4.20
2024-03-27T23:28:43.910Z,3.80
2024-03-27T23:31:12.552Z,5.00
2024-03-27T23:33:41.121Z,4.50
2024-03-27T23:36:10.284Z,8.10
2024-03-27T23:38:39.226Z,4.50
2024-03-27T23:41:09.181Z,5.20
2024-03-27T23:43:38.162Z,7.00
2024-03-27T23:46:06.752Z,4.40
2024-03-27T23:48:35.489Z,6.60
2024-03-27T23:51:06.243Z,6.60
2024-03-27T23:53:38.143Z,6.20
2024-03-27T23:56:07.011Z,3.50
2024-03-27T23:58:35.984Z,5.00
